Time;durP1;ratioP1;P1;durP2;ratioP2;P2;SDS_P1;SDS_P2;PMS_P1;PMS_P2;Temp;Humidity;BMP_temperature;BMP_pressure;BME280_temperature;BME280_humidity;BME280_pressure;Samples;Min_cycle;Max_cycle;Signal;HPM_P1;HPM_P2
2020/12/04 00:00:23;;;;;;;24.10;12.10;;;3.60;99.90;;;;;;5048705;28;20385;-52
2020/12/04 00:02:49;;;;;;;22.63;11.95;;;3.80;99.90;;;;;;5048400;28;20397;-53
2020/12/04 00:05:14;;;;;;;20.00;11.80;;;4.40;99.90;;;;;;5048468;28;20412;-53
2020/12/04 00:07:40;;;;;;;23.37;11.67;;;2.90;99.90;;;;;;5049957;28;20856;-52
2020/12/04 00:10:06;;;;;;;23.33;11.70;;;3.00;99.90;;;;;;5047752;28;20424;-53
2020/12/04 00:12:31;;;;;;;21.85;11.55;;;4.50;99.90;;;;;;5049224;28;20940;-53
2020/12/04 00:14:57;;;;;;;22.90;12.07;;;4.00;99.90;;;;;;5048913;28;20401;-53
2020/12/04 00:17:23;;;;;;;25.15;12.50;;;3.00;99.90;;;;;;5048412;28;20382;-52
2020/12/04 00:19:48;;;;;;;24.67;12.32;;;4.00;99.90;;;;;;5049357;28;20874;-52
2020/12/04 00:22:14;;;;;;;24.60;12.47;;;4.70;99.90;;;;;;5046516;28;20433;-53
2020/12/04 00:24:40;;;;;;;25.85;13.85;;;3.30;99.90;;;;;;5048099;28;20508;-53
2020/12/04 00:27:05;;;;;;;27.30;13.93;;;3.90;99.90;;;;;;5048477;28;20389;-56
2020/12/04 00:29:31;;;;;;;24.37;13.10;;;3.00;99.90;;;;;;5047587;28;20812;-52
2020/12/04 00:31:57;;;;;;;26.23;13.13;;;3.40;99.90;;;;;;5048469;28;20382;-53
2020/12/04 00:34:24;;;;;;;28.52;13.15;;;4.40;99.90;;;;;;5047450;28;21021;-52
2020/12/04 00:36:50;;;;;;;26.50;13.80;;;3.10;99.90;;;;;;5049534;28;20393;-52
2020/12/04 00:39:16;;;;;;;24.05;13.05;;;4.80;99.90;;;;;;5047456;28;20401;-53
2020/12/04 00:41:43;;;;;;;25.35;13.52;;;2.90;99.90;;;;;;5049270;28;20381;-53
2020/12/04 00:44:09;;;;;;;26.02;13.05;;;2.90;99.90;;;;;;5046365;28;20478;-52
2020/12/04 00:46:35;;;;;;;25.70;12.97;;;4.60;99.90;;;;;;5047587;28;20958;-53
2020/12/04 00:49:01;;;;;;;26.08;13.52;;;3.20;99.90;;;;;;5048908;28;20740;-52
2020/12/04 00:51:26;;;;;;;27.98;14.13;;;2.80;99.90;;;;;;5045907;28;20409;-52
2020/12/04 00:53:53;;;;;;;26.23;13.43;;;3.50;99.90;;;;;;5049567;28;20465;-52
2020/12/04 00:56:20;;;;;;;25.77;13.45;;;2.90;99.90;;;;;;5052209;28;20427;-53
2020/12/04 00:58:46;;;;;;;25.53;13.13;;;3.10;99.90;;;;;;5049978;28;20733;-53
2020/12/04 01:01:12;;;;;;;25.67;12.75;;;2.80;99.90;;;;;;5052320;28;20472;-52
2020/12/04 01:03:38;;;;;;;25.65;13.10;;;2.80;99.90;;;;;;5051144;28;20397;-52
2020/12/04 01:06:04;;;;;;;23.73;11.70;;;3.70;99.90;;;;;;5052601;28;20394;-56
2020/12/04 01:08:29;;;;;;;24.02;12.90;;;5.70;99.90;;;;;;5050674;28;20424;-53
2020/12/04 01:10:56;;;;;;;26.90;12.67;;;4.30;99.90;;;;;;5052754;28;20425;-52
2020/12/04 01:13:22;;;;;;;28.87;13.43;;;5.50;99.90;;;;;;5052039;28;21221;-53
2020/12/04 01:15:47;;;;;;;24.00;13.30;;;5.20;99.90;;;;;;5050838;28;20401;-52
2020/12/04 01:18:13;;;;;;;27.50;13.60;;;2.70;99.90;;;;;;5051548;28;20922;-53
2020/12/04 01:20:38;;;;;;;30.95;14.70;;;2.80;99.90;;;;;;5052631;28;20376;-52
2020/12/04 01:23:04;;;;;;;26.80;14.20;;;2.90;99.90;;;;;;5050287;28;20437;-56
2020/12/04 01:25:30;;;;;;;26.63;13.93;;;5.20;99.90;;;;;;5050116;28;20421;-52
2020/12/04 01:27:55;;;;;;;28.30;14.40;;;3.10;99.90;;;;;;5052332;28;20400;-52
2020/12/04 01:30:21;;;;;;;29.90;16.37;;;5.60;99.90;;;;;;5049904;28;21251;-52
2020/12/04 01:32:47;;;;;;;27.48;14.45;;;5.00;99.90;;;;;;5052537;28;20398;-53
2020/12/04 01:35:13;;;;;;;27.48;15.05;;;2.70;99.90;;;;;;5049742;28;20476;-53
2020/12/04 01:37:39;;;;;;;26.90;13.88;;;5.00;99.90;;;;;;5050390;28;20409;-53
2020/12/04 01:40:05;;;;;;;27.52;13.80;;;3.20;99.90;;;;;;5051635;28;20803;-57
2020/12/04 01:42:31;;;;;;;26.58;13.15;;;4.50;99.90;;;;;;5049517;28;20389;-54
2020/12/04 01:44:56;;;;;;;27.67;14.10;;;2.80;99.90;;;;;;5041482;28;20755;-54
2020/12/04 01:47:22;;;;;;;28.23;14.17;;;3.80;99.90;;;;;;5049518;28;21271;-53
2020/12/04 01:49:51;;;;;;;24.98;13.70;;;2.80;99.90;;;;;;5051373;28;20435;-53
2020/12/04 01:52:18;;;;;;;29.57;14.77;;;2.80;99.90;;;;;;5049343;28;20436;-53
2020/12/04 01:54:47;;;;;;;27.52;14.52;;;2.80;99.90;;;;;;5050693;28;20394;-53
2020/12/04 01:57:19;;;;;;;26.58;13.40;;;5.60;99.90;;;;;;5050447;28;20393;-53
2020/12/04 01:59:45;;;;;;;26.40;13.63;;;2.80;99.90;;;;;;5051888;28;20448;-53
2020/12/04 02:02:19;;;;;;;25.00;12.65;;;5.00;99.90;;;;;;5049499;28;20875;-54
2020/12/04 02:04:46;;;;;;;25.65;13.68;;;2.90;99.90;;;;;;5051494;28;20850;-53
2020/12/04 02:07:43;;;;;;;26.67;14.10;;;3.20;99.90;;;;;;5050283;28;20434;-53
2020/12/04 02:10:18;;;;;;;29.63;14.70;;;2.90;99.90;;;;;;5048912;28;20429;-55
2020/12/04 02:12:45;;;;;;;29.55;14.27;;;3.00;99.90;;;;;;5049414;28;20394;-53
2020/12/04 02:15:12;;;;;;;28.50;14.60;;;4.00;99.90;;;;;;5050390;28;20851;-53
2020/12/04 02:17:38;;;;;;;28.00;14.90;;;5.00;99.90;;;;;;5049578;28;20389;-54
2020/12/04 02:20:05;;;;;;;26.75;13.68;;;3.10;99.90;;;;;;5082881;28;20807;-58
2020/12/04 02:22:35;;;;;;;27.13;14.57;;;3.30;99.90;;;;;;5049266;28;20397;-54
2020/12/04 02:25:01;;;;;;;25.02;14.25;;;3.30;99.90;;;;;;5051025;28;20461;-53
2020/12/04 02:27:27;;;;;;;29.60;15.25;;;3.50;99.90;;;;;;5048613;28;20389;-53
2020/12/04 02:29:53;;;;;;;28.02;14.85;;;3.40;99.90;;;;;;5050793;28;20381;-53
2020/12/04 02:32:18;;;;;;;27.10;14.02;;;4.70;99.90;;;;;;5050089;28;20721;-54
2020/12/04 02:34:44;;;;;;;28.67;16.10;;;3.40;99.90;;;;;;5049132;28;20943;-53
2020/12/04 02:37:10;;;;;;;28.95;16.42;;;4.90;99.90;;;;;;5050347;28;20370;-53
2020/12/04 02:39:36;;;;;;;35.03;17.63;;;3.60;99.90;;;;;;5051227;28;20465;-53
2020/12/04 02:42:03;;;;;;;26.70;14.55;;;3.70;99.90;;;;;;5049254;28;20408;-53
2020/12/04 02:44:29;;;;;;;25.98;14.50;;;6.30;99.90;;;;;;5050192;28;20405;-54
2020/12/04 02:46:56;;;;;;;26.92;14.25;;;3.80;99.90;;;;;;5048705;28;20405;-54
2020/12/04 02:49:21;;;;;;;26.95;13.63;;;4.20;99.90;;;;;;5048392;28;20389;-53
2020/12/04 02:51:48;;;;;;;27.48;14.02;;;5.50;99.90;;;;;;5050307;28;20535;-53
2020/12/04 02:54:14;;;;;;;25.53;13.97;;;3.60;99.90;;;;;;5050242;28;20443;-53
2020/12/04 02:56:40;;;;;;;24.63;11.73;;;3.70;99.90;;;;;;5048929;28;20401;-54
2020/12/04 02:59:06;;;;;;;27.33;13.73;;;3.70;99.90;;;;;;5049523;28;20850;-57
2020/12/04 03:01:31;;;;;;;23.87;12.50;;;4.80;99.90;;;;;;5049367;28;20451;-53
2020/12/04 03:03:57;;;;;;;24.57;12.50;;;3.70;99.90;;;;;;5050000;28;20378;-53
2020/12/04 03:06:23;;;;;;;24.15;13.40;;;3.70;99.90;;;;;;5048740;28;20397;-54
2020/12/04 03:08:49;;;;;;;22.03;11.53;;;3.60;99.90;;;;;;5048846;28;20409;-53
2020/12/04 03:11:18;;;;;;;24.97;12.50;;;4.00;99.90;;;;;;5049745;28;20385;-53
2020/12/04 03:13:44;;;;;;;23.02;12.20;;;3.50;99.90;;;;;;5048528;28;20393;-54
2020/12/04 03:16:09;;;;;;;25.60;12.53;;;4.70;99.90;;;;;;5049623;28;20392;-53
2020/12/04 03:18:35;;;;;;;21.40;12.10;;;5.80;99.90;;;;;;5049607;28;20385;-53
2020/12/04 03:21:00;;;;;;;25.33;13.10;;;5.80;99.90;;;;;;5049128;28;20496;-53
2020/12/04 03:23:26;;;;;;;23.07;13.03;;;3.40;99.90;;;;;;5047601;28;20405;-53
2020/12/04 03:25:53;;;;;;;22.67;12.52;;;4.80;99.90;;;;;;5050612;28;20483;-53
2020/12/04 03:28:19;;;;;;;24.05;12.40;;;5.50;99.90;;;;;;5048812;28;20835;-54
2020/12/04 03:30:44;;;;;;;23.13;12.67;;;4.30;99.90;;;;;;5048936;28;20397;-53
2020/12/04 03:33:10;;;;;;;23.10;12.27;;;3.30;99.90;;;;;;5047640;28;20527;-53
2020/12/04 03:35:35;;;;;;;22.20;12.90;;;6.30;99.90;;;;;;5050189;28;20385;-53
2020/12/04 03:38:01;;;;;;;23.13;13.50;;;4.00;99.90;;;;;;5048280;28;20943;-53
2020/12/04 03:40:26;;;;;;;23.13;12.30;;;4.60;99.90;;;;;;5049048;28;20475;-53
2020/12/04 03:42:52;;;;;;;21.75;12.05;;;3.60;99.90;;;;;;5048581;28;20408;-53
2020/12/04 03:45:18;;;;;;;21.00;11.67;;;3.60;99.90;;;;;;5048269;28;20448;-54
2020/12/04 03:47:43;;;;;;;23.80;12.50;;;6.20;99.90;;;;;;5049182;28;20459;-53
2020/12/04 03:50:09;;;;;;;24.83;13.65;;;5.30;99.90;;;;;;5049282;28;20488;-53
2020/12/04 03:52:34;;;;;;;23.90;12.50;;;3.50;99.90;;;;;;5048573;28;20397;-54
2020/12/04 03:55:00;;;;;;;25.48;13.13;;;5.50;99.90;;;;;;5049575;28;20393;-53
2020/12/04 03:57:25;;;;;;;23.50;12.10;;;3.50;99.90;;;;;;5049154;28;20992;-53
2020/12/04 03:59:51;;;;;;;24.43;12.13;;;3.40;99.90;;;;;;5048288;28;20852;-54
2020/12/04 04:02:17;;;;;;;23.10;12.50;;;3.40;99.90;;;;;;5049252;28;20381;-54
2020/12/04 04:04:42;;;;;;;24.23;13.07;;;3.80;99.90;;;;;;5047733;28;20449;-53
2020/12/04 04:07:08;;;;;;;21.08;12.07;;;3.30;99.90;;;;;;5048412;28;20401;-57
2020/12/04 04:09:33;;;;;;;23.53;12.20;;;3.70;99.90;;;;;;5048169;28;20393;-57
2020/12/04 04:11:59;;;;;;;23.90;13.48;;;3.50;99.90;;;;;;5048157;28;20508;-54
2020/12/04 04:14:25;;;;;;;23.20;13.20;;;3.10;99.90;;;;;;5049232;28;20477;-53
2020/12/04 04:16:50;;;;;;;34.37;14.97;;;3.80;99.90;;;;;;5047973;28;20369;-53
2020/12/04 04:19:16;;;;;;;27.38;14.75;;;3.80;99.90;;;;;;5047124;28;20538;-54
2020/12/04 04:21:41;;;;;;;28.70;15.57;;;3.20;99.90;;;;;;5049976;28;20410;-53
2020/12/04 04:24:07;;;;;;;25.73;13.43;;;3.20;99.90;;;;;;5047082;28;20883;-56
2020/12/04 04:26:33;;;;;;;29.38;15.50;;;3.80;99.90;;;;;;5049292;28;20390;-54
2020/12/04 04:28:59;;;;;;;29.67;15.20;;;3.80;99.90;;;;;;5047629;28;20416;-54
2020/12/04 04:31:25;;;;;;;26.57;14.60;;;3.40;99.90;;;;;;5051268;28;20393;-53
2020/12/04 04:33:51;;;;;;;27.67;15.87;;;3.20;99.90;;;;;;5051388;28;20409;-54
2020/12/04 04:36:16;;;;;;;27.67;13.65;;;3.20;99.90;;;;;;5052069;28;20814;-53
2020/12/04 04:38:42;;;;;;;26.83;13.88;;;4.40;99.90;;;;;;5051127;28;20421;-53
2020/12/04 04:41:08;;;;;;;30.75;13.90;;;5.40;99.90;;;;;;5052669;28;20420;-56
2020/12/04 04:43:34;;;;;;;23.70;13.73;;;3.20;99.90;;;;;;5051626;28;20442;-53
2020/12/04 04:46:20;;;;;;;29.17;14.60;;;4.80;99.90;;;;;;5053225;28;20408;-53
2020/12/04 04:48:55;;;;;;;25.27;14.48;;;3.30;99.90;;;;;;5051924;28;20385;-54
2020/12/04 04:51:23;;;;;;;26.38;14.43;;;3.40;99.90;;;;;;5051335;28;20431;-53
2020/12/04 04:54:09;;;;;;;25.77;13.82;;;4.70;99.90;;;;;;5051335;28;20401;-54
2020/12/04 04:56:35;;;;;;;26.38;13.30;;;4.40;99.90;;;;;;5052845;28;20822;-54
2020/12/04 04:59:00;;;;;;;24.07;12.57;;;3.10;99.90;;;;;;5052526;28;20435;-53
2020/12/04 05:01:26;;;;;;;22.63;12.17;;;3.50;99.90;;;;;;5050847;28;20557;-53
2020/12/04 05:03:59;;;;;;;26.35;13.73;;;5.60;99.90;;;;;;5037104;28;20454;-54
2020/12/04 05:06:36;;;;;;;24.03;12.97;;;3.20;99.90;;;;;;5052005;28;20539;-53
2020/12/04 05:09:06;;;;;;;25.23;12.88;;;3.50;99.90;;;;;;5052026;28;20401;-53
2020/12/04 05:11:32;;;;;;;31.98;13.70;;;6.10;99.90;;;;;;5051668;28;20871;-52
2020/12/04 05:14:13;;;;;;;25.55;13.27;;;4.10;99.90;;;;;;5051050;28;20405;-52
2020/12/04 05:16:39;;;;;;;26.08;14.02;;;4.20;99.90;;;;;;5052577;28;20848;-53
2020/12/04 05:19:05;;;;;;;24.85;13.50;;;5.70;99.90;;;;;;5052834;28;20395;-51
2020/12/04 05:21:32;;;;;;;24.47;12.57;;;3.30;99.90;;;;;;5050633;28;20902;-51
2020/12/04 05:23:59;;;;;;;22.98;12.77;;;3.20;99.90;;;;;;5051407;28;20397;-52
2020/12/04 05:26:36;;;;;;;24.13;12.32;;;3.10;99.90;;;;;;5049918;28;20401;-52
2020/12/04 05:29:05;;;;;;;23.90;12.50;;;4.90;99.90;;;;;;5052088;28;20427;-52
2020/12/04 05:31:33;;;;;;;23.57;13.27;;;4.90;99.90;;;;;;5049819;28;20802;-52
2020/12/04 05:33:59;;;;;;;27.40;13.60;;;4.30;99.90;;;;;;5052425;28;20373;-52
2020/12/04 05:36:30;;;;;;;24.02;12.35;;;3.00;99.90;;;;;;5050911;28;20884;-52
2020/12/04 05:38:57;;;;;;;21.42;12.15;;;3.00;99.90;;;;;;5051331;28;20424;-52
2020/12/04 05:41:27;;;;;;;24.80;13.30;;;4.90;99.90;;;;;;5068980;28;20380;-53
2020/12/04 05:43:53;;;;;;;23.38;12.20;;;3.00;99.90;;;;;;5060959;28;20440;-52
2020/12/04 05:46:22;;;;;;;24.48;13.00;;;3.70;99.90;;;;;;5059881;28;20383;-54
2020/12/04 05:49:04;;;;;;;23.17;12.20;;;3.10;99.90;;;;;;5046385;28;20393;-53
2020/12/04 05:51:31;;;;;;;23.52;12.75;;;3.20;99.90;;;;;;5065041;28;20536;-53
2020/12/04 05:53:57;;;;;;;22.50;11.80;;;3.80;99.90;;;;;;5051616;28;20392;-53
2020/12/04 05:56:24;;;;;;;25.35;12.55;;;3.30;99.90;;;;;;5046808;28;20425;-56
2020/12/04 05:58:56;;;;;;;23.50;13.07;;;3.30;99.90;;;;;;5050561;28;20456;-52
2020/12/04 06:01:23;;;;;;;24.02;12.43;;;3.20;99.90;;;;;;5049581;28;20425;-52
2020/12/04 06:03:53;;;;;;;22.60;12.95;;;3.10;99.90;;;;;;5046424;28;20427;-52
2020/12/04 06:06:32;;;;;;;24.38;12.80;;;5.00;99.90;;;;;;5047956;28;20460;-52
2020/12/04 06:09:06;;;;;;;22.02;12.23;;;3.00;99.90;;;;;;5049614;28;20396;-53
2020/12/04 06:11:37;;;;;;;22.60;12.32;;;3.00;99.90;;;;;;5050872;28;20477;-52
2020/12/04 06:14:12;;;;;;;24.47;12.70;;;5.10;99.90;;;;;;5049973;28;20407;-51
2020/12/04 06:16:37;;;;;;;22.73;12.80;;;3.50;99.90;;;;;;5044585;28;20834;-50
2020/12/04 06:19:23;;;;;;;25.73;12.77;;;3.00;99.90;;;;;;5049052;28;20378;-57
2020/12/04 06:21:49;;;;;;;24.58;12.10;;;5.60;99.90;;;;;;5043067;28;20402;-52
2020/12/04 06:24:15;;;;;;;23.35;12.15;;;3.10;99.90;;;;;;5048642;28;20432;-52
2020/12/04 06:26:51;;;;;;;25.65;13.05;;;3.10;99.90;;;;;;5049600;28;20416;-52
2020/12/04 06:29:17;;;;;;;24.08;12.30;;;3.10;99.90;;;;;;5048686;28;20373;-57
2020/12/04 06:31:43;;;;;;;27.40;14.27;;;3.70;99.90;;;;;;5050243;28;20385;-54
2020/12/04 06:34:14;;;;;;;25.40;12.97;;;3.20;99.90;;;;;;5048947;28;20401;-58
2020/12/04 06:36:40;;;;;;;22.35;11.32;;;3.20;99.90;;;;;;5050212;28;20436;-52
2020/12/04 06:39:06;;;;;;;23.75;12.35;;;3.80;99.90;;;;;;5048875;28;20404;-52
2020/12/04 06:41:34;;;;;;;24.58;12.90;;;5.40;99.90;;;;;;5048108;28;20397;-53
2020/12/04 06:44:03;;;;;;;22.48;11.60;;;5.90;99.90;;;;;;5050422;28;20381;-52
2020/12/04 06:46:42;;;;;;;24.05;12.23;;;3.30;99.90;;;;;;5046058;28;21095;-56
2020/12/04 06:49:11;;;;;;;24.20;12.45;;;3.30;99.90;;;;;;5045307;28;20397;-56
2020/12/04 06:51:38;;;;;;;23.07;12.20;;;3.20;99.90;;;;;;5049678;28;20418;-52
2020/12/04 06:54:05;;;;;;;23.92;12.18;;;3.30;99.90;;;;;;5047296;28;20409;-52
2020/12/04 06:56:31;;;;;;;21.55;11.75;;;3.30;99.90;;;;;;5046768;28;20415;-52
2020/12/04 06:58:56;;;;;;;19.73;11.70;;;3.40;99.90;;;;;;5042100;28;20401;-52
2020/12/04 07:01:22;;;;;;;18.42;10.48;;;3.60;99.90;;;;;;5048962;28;20386;-53
2020/12/04 07:03:53;;;;;;;22.23;11.15;;;3.50;99.90;;;;;;5048230;28;20432;-53
2020/12/04 07:06:24;;;;;;;20.00;10.88;;;4.00;99.90;;;;;;5047829;28;20405;-52
2020/12/04 07:09:04;;;;;;;20.52;10.55;;;2.50;99.90;;;;;;5045406;28;20405;-51
2020/12/04 07:11:30;;;;;;;19.93;10.60;;;3.60;99.90;;;;;;5048204;28;20630;-52
2020/12/04 07:13:57;;;;;;;20.38;10.85;;;3.60;99.90;;;;;;5048666;28;20401;-53
2020/12/04 07:16:24;;;;;;;18.13;9.80;;;3.60;99.90;;;;;;5052586;28;20391;-54
2020/12/04 07:18:53;;;;;;;20.23;10.32;;;3.80;99.90;;;;;;5045657;28;20405;-52
2020/12/04 07:21:22;;;;;;;20.42;10.05;;;6.20;99.90;;;;;;5041026;28;20428;-53
2020/12/04 07:23:48;;;;;;;18.58;9.70;;;3.80;99.90;;;;;;5042229;28;20417;-53
2020/12/04 07:26:16;;;;;;;25.70;11.32;;;3.80;99.90;;;;;;5033998;28;20422;-52
2020/12/04 07:28:44;;;;;;;20.42;10.55;;;3.90;99.90;;;;;;5032652;28;20434;-53
2020/12/04 07:31:28;;;;;;;23.40;10.50;;;4.00;99.90;;;;;;5042001;28;20396;-56
2020/12/04 07:33:59;;;;;;;22.92;10.77;;;5.80;99.90;;;;;;5039981;28;20819;-52
2020/12/04 07:36:26;;;;;;;22.40;10.50;;;4.20;99.90;;;;;;5037794;28;20410;-53
2020/12/04 07:38:57;;;;;;;22.00;10.82;;;4.30;99.90;;;;;;5039120;28;21251;-52
2020/12/04 07:41:24;;;;;;;28.75;14.60;;;4.40;99.90;;;;;;5035267;28;20407;-52
2020/12/04 07:43:50;;;;;;;27.05;13.07;;;4.40;99.90;;;;;;5042075;28;21165;-53
2020/12/04 07:46:19;;;;;;;22.88;12.85;;;4.40;99.90;;;;;;5040877;28;20433;-53
2020/12/04 07:48:59;;;;;;;22.88;11.45;;;7.10;99.90;;;;;;5043392;28;20469;-52
2020/12/04 07:51:26;;;;;;;20.05;10.75;;;4.50;99.90;;;;;;5036991;28;20407;-52
2020/12/04 07:53:55;;;;;;;18.13;9.93;;;4.40;99.90;;;;;;5036864;28;20734;-55
2020/12/04 07:56:24;;;;;;;19.20;10.20;;;4.50;99.90;;;;;;5041223;28;20397;-54
2020/12/04 07:58:56;;;;;;;22.75;12.05;;;4.40;99.90;;;;;;5046103;28;20923;-53
2020/12/04 08:01:22;;;;;;;21.43;11.50;;;4.30;99.90;;;;;;5039796;28;20407;-52
2020/12/04 08:03:49;;;;;;;21.90;10.60;;;4.40;99.90;;;;;;5039433;28;20480;-52
2020/12/04 08:06:15;;;;;;;20.85;11.27;;;4.40;99.90;;;;;;5040079;28;20421;-53
2020/12/04 08:08:41;;;;;;;21.58;10.52;;;5.90;99.90;;;;;;5047543;28;20904;-53
2020/12/04 08:11:12;;;;;;;21.15;11.23;;;4.50;99.90;;;;;;5044519;28;20399;-52
2020/12/04 08:13:39;;;;;;;20.50;10.40;;;4.60;99.90;;;;;;5051423;28;20801;-52
2020/12/04 08:16:08;;;;;;;19.15;10.50;;;5.50;99.90;;;;;;5040969;28;20390;-52
2020/12/04 08:18:34;;;;;;;20.38;9.95;;;4.60;99.90;;;;;;5039513;28;20413;-52
2020/12/04 08:21:05;;;;;;;22.77;11.50;;;4.70;99.90;;;;;;5036786;28;20559;-52
2020/12/04 08:23:32;;;;;;;25.10;11.60;;;4.70;99.90;;;;;;5043977;28;20462;-52
2020/12/04 08:25:58;;;;;;;25.15;12.18;;;4.70;99.90;;;;;;5044036;28;20502;-55
2020/12/04 08:28:24;;;;;;;20.80;11.70;;;4.70;99.90;;;;;;5049397;28;20863;-52
2020/12/04 08:30:50;;;;;;;20.35;10.55;;;4.70;99.90;;;;;;5047773;28;20891;-53
2020/12/04 08:33:16;;;;;;;21.85;11.00;;;4.70;99.90;;;;;;5046588;28;20400;-53
2020/12/04 08:35:43;;;;;;;23.97;11.47;;;4.60;99.90;;;;;;5041995;28;20754;-53
2020/12/04 08:38:10;;;;;;;21.27;11.20;;;6.10;99.90;;;;;;5047736;28;20378;-52
2020/12/04 08:40:38;;;;;;;20.88;11.57;;;4.80;99.90;;;;;;5041912;28;20399;-52
2020/12/04 08:43:13;;;;;;;21.23;11.90;;;4.90;99.90;;;;;;5049047;28;20407;-54
2020/12/04 08:45:41;;;;;;;22.80;11.30;;;4.70;99.90;;;;;;5048637;28;20984;-54
2020/12/04 08:48:12;;;;;;;31.50;15.70;;;6.50;99.90;;;;;;5041208;28;20864;-52
2020/12/04 08:51:14;;;;;;;28.37;13.77;;;4.60;99.90;;;;;;5040262;28;20399;-53
2020/12/04 08:53:40;;;;;;;21.05;10.50;;;4.50;99.90;;;;;;5044761;28;20463;-52
2020/12/04 08:56:05;;;;;;;19.63;10.93;;;4.50;99.90;;;;;;5045878;28;20409;-52
2020/12/04 08:58:31;;;;;;;20.80;11.02;;;4.50;99.90;;;;;;5043331;28;20393;-52
2020/12/04 09:00:59;;;;;;;22.33;10.90;;;4.70;99.90;;;;;;5044160;28;20892;-52
2020/12/04 09:03:30;;;;;;;18.25;10.07;;;4.90;99.90;;;;;;5068864;28;20825;-52
2020/12/04 09:05:56;;;;;;;19.10;10.85;;;4.90;99.90;;;;;;5041989;28;20905;-53
2020/12/04 09:08:22;;;;;;;19.60;10.30;;;5.10;99.90;;;;;;5042809;28;20401;-52
2020/12/04 09:10:48;;;;;;;21.48;10.25;;;5.30;99.90;;;;;;5044130;28;20736;-52
2020/12/04 09:13:15;;;;;;;17.92;9.10;;;5.30;99.90;;;;;;5039759;28;20492;-56
2020/12/04 09:15:40;;;;;;;18.85;9.65;;;5.40;99.90;;;;;;5041664;28;20415;-52
2020/12/04 09:18:06;;;;;;;18.57;9.60;;;5.60;99.90;;;;;;5035146;28;20496;-52
2020/12/04 09:20:32;;;;;;;21.77;10.27;;;5.40;99.90;;;;;;5044351;28;20933;-52
2020/12/04 09:22:58;;;;;;;19.15;10.35;;;5.40;99.90;;;;;;5035403;28;20776;-51
2020/12/04 09:25:25;;;;;;;17.95;9.68;;;5.40;99.90;;;;;;5040203;28;20409;-52
2020/12/04 09:27:51;;;;;;;19.80;9.90;;;5.40;99.90;;;;;;5044121;28;20400;-53
2020/12/04 09:30:19;;;;;;;21.55;10.10;;;7.20;99.90;;;;;;5043651;28;20417;-52
2020/12/04 09:32:46;;;;;;;21.05;10.52;;;5.30;99.90;;;;;;5035333;28;20395;-53
2020/12/04 09:35:13;;;;;;;20.88;10.70;;;5.30;99.90;;;;;;5042408;28;20818;-57
2020/12/04 09:37:40;;;;;;;20.77;10.90;;;5.40;99.90;;;;;;5048887;28;20390;-53
2020/12/04 09:40:17;;;;;;;20.80;10.50;;;5.60;99.90;;;;;;5046248;28;20431;-52
2020/12/04 09:42:44;;;;;;;21.30;10.83;;;5.80;99.90;;;;;;5040180;28;20412;-52
2020/12/04 09:45:11;;;;;;;21.33;11.07;;;6.20;99.90;;;;;;5047108;28;20405;-53
2020/12/04 09:47:37;;;;;;;22.20;10.32;;;5.90;99.90;;;;;;5036649;28;20405;-54
2020/12/04 09:50:09;;;;;;;22.70;11.17;;;6.00;99.90;;;;;;5040496;28;20401;-52
2020/12/04 09:52:35;;;;;;;17.70;10.43;;;6.20;99.90;;;;;;5038272;28;20861;-52
2020/12/04 09:55:02;;;;;;;20.55;10.80;;;6.30;99.90;;;;;;5043802;28;20402;-53
2020/12/04 09:57:27;;;;;;;26.60;12.30;;;6.30;99.90;;;;;;5041462;28;20500;-54
2020/12/04 09:59:53;;;;;;;27.40;13.20;;;6.40;99.90;;;;;;5042988;28;20965;-52
2020/12/04 10:02:18;;;;;;;33.33;14.55;;;6.50;99.90;;;;;;5040470;28;20397;-52
2020/12/04 10:04:44;;;;;;;22.50;11.90;;;6.40;99.90;;;;;;5043701;28;20452;-51
2020/12/04 10:07:10;;;;;;;29.35;12.50;;;6.30;99.90;;;;;;5041176;28;20879;-52
2020/12/04 10:09:36;;;;;;;26.55;12.70;;;6.40;99.90;;;;;;5040634;28;20385;-53
2020/12/04 10:12:03;;;;;;;29.90;12.65;;;6.30;99.90;;;;;;5042095;28;20430;-54
2020/12/04 10:14:29;;;;;;;20.35;10.60;;;6.30;99.90;;;;;;5048327;28;20412;-53
2020/12/04 10:16:55;;;;;;;22.30;10.90;;;6.10;99.90;;;;;;5034323;28;20425;-52
2020/12/04 10:19:21;;;;;;;20.05;11.10;;;6.10;99.90;;;;;;5038434;28;21040;-56
2020/12/04 10:21:47;;;;;;;23.33;11.10;;;6.10;99.90;;;;;;5041997;28;20393;-52
2020/12/04 10:24:14;;;;;;;19.93;10.00;;;6.10;99.90;;;;;;5034738;28;20500;-56
2020/12/04 10:26:48;;;;;;;22.73;10.55;;;6.10;99.90;;;;;;5047002;28;20953;-53
2020/12/04 10:29:16;;;;;;;18.95;10.02;;;6.20;99.90;;;;;;5038248;28;20533;-57
2020/12/04 10:31:42;;;;;;;19.63;10.10;;;6.40;99.90;;;;;;5038841;28;20423;-52
2020/12/04 10:34:08;;;;;;;21.15;10.25;;;6.50;99.90;;;;;;5036729;28;20405;-53
2020/12/04 10:36:36;;;;;;;18.80;10.65;;;6.70;99.90;;;;;;5045342;28;20455;-52
2020/12/04 10:39:04;;;;;;;23.30;12.80;;;6.60;99.90;;;;;;5042099;28;20744;-52
2020/12/04 10:41:31;;;;;;;18.10;10.85;;;6.30;99.90;;;;;;5047013;28;20500;-52
2020/12/04 10:43:57;;;;;;;20.63;10.57;;;6.20;99.90;;;;;;5045356;28;20394;-52
2020/12/04 10:46:22;;;;;;;19.67;10.23;;;6.40;99.90;;;;;;5041717;28;20426;-57
2020/12/04 10:48:48;;;;;;;18.85;11.07;;;6.40;99.90;;;;;;5039291;28;20385;-53
2020/12/04 10:51:14;;;;;;;22.33;11.53;;;6.30;99.90;;;;;;5041332;28;20399;-57
2020/12/04 10:53:39;;;;;;;20.63;10.90;;;6.30;99.90;;;;;;5046318;28;20423;-52
2020/12/04 10:56:05;;;;;;;21.80;10.80;;;6.20;99.90;;;;;;5037564;28;20395;-52
2020/12/04 10:58:31;;;;;;;21.25;10.98;;;6.30;99.90;;;;;;5042067;28;20418;-52
2020/12/04 11:00:56;;;;;;;20.23;10.70;;;6.30;99.90;;;;;;5041404;28;20383;-55
2020/12/04 11:05:48;;;;;;;26.02;12.95;;;6.20;99.90;;;;;;5046810;28;20405;-52
2020/12/04 11:08:14;;;;;;;18.77;11.10;;;6.20;99.90;;;;;;5046962;28;20481;-57
2020/12/04 11:10:42;;;;;;;21.15;10.70;;;6.30;99.90;;;;;;5041246;28;20393;-53
2020/12/04 11:13:08;;;;;;;22.50;11.60;;;6.30;99.90;;;;;;5044723;28;20421;-54
2020/12/04 11:15:34;;;;;;;20.00;11.50;;;6.20;99.90;;;;;;5042618;28;20427;-53
2020/12/04 11:17:59;;;;;;;19.85;11.02;;;6.20;99.90;;;;;;5037106;28;20402;-53
2020/12/04 11:20:25;;;;;;;20.50;11.23;;;6.30;99.90;;;;;;5038441;28;20386;-53
2020/12/04 11:22:52;;;;;;;20.30;10.93;;;7.90;99.90;;;;;;5043555;28;20893;-52
2020/12/04 11:25:19;;;;;;;19.33;9.90;;;6.10;99.90;;;;;;5037146;28;20433;-54
2020/12/04 11:27:46;;;;;;;21.50;10.70;;;6.00;99.90;;;;;;5044973;28;20390;-52
2020/12/04 11:30:19;;;;;;;18.90;10.48;;;6.10;99.90;;;;;;5037133;28;20394;-53
2020/12/04 11:32:46;;;;;;;22.38;11.23;;;5.90;99.90;;;;;;5039639;28;20444;-52
2020/12/04 11:35:13;;;;;;;22.17;10.10;;;5.80;99.90;;;;;;5041355;28;20435;-53
2020/12/04 11:37:42;;;;;;;21.13;12.35;;;5.90;99.90;;;;;;5043223;28;20405;-51
2020/12/04 11:40:10;;;;;;;20.60;10.52;;;6.00;99.90;;;;;;5039298;28;20397;-52
2020/12/04 11:42:41;;;;;;;23.77;12.20;;;5.90;99.90;;;;;;5042133;28;20460;-53
2020/12/04 11:45:08;;;;;;;26.73;12.82;;;5.90;99.90;;;;;;5043331;28;20413;-53
2020/12/04 11:47:37;;;;;;;22.37;11.70;;;5.80;99.90;;;;;;5028609;28;20465;-54
2020/12/04 11:50:05;;;;;;;21.20;10.80;;;5.80;99.90;;;;;;5037511;28;20479;-53
2020/12/04 11:52:31;;;;;;;26.80;11.67;;;5.90;99.90;;;;;;5043337;28;20933;-53
2020/12/04 11:54:57;;;;;;;20.10;10.20;;;6.00;99.90;;;;;;5042544;28;20430;-52
2020/12/04 11:57:22;;;;;;;20.27;9.88;;;5.90;99.90;;;;;;5039942;28;20409;-53
2020/12/04 11:59:49;;;;;;;18.00;10.13;;;5.90;99.90;;;;;;5040110;28;20409;-52
2020/12/04 12:02:15;;;;;;;19.23;9.50;;;6.00;99.90;;;;;;5044018;28;20382;-58
2020/12/04 12:04:40;;;;;;;26.52;11.60;;;6.10;99.90;;;;;;5036169;28;20446;-53
2020/12/04 12:07:06;;;;;;;25.23;13.63;;;6.10;99.90;;;;;;5042670;28;20780;-53
2020/12/04 12:09:32;;;;;;;21.40;11.52;;;6.20;99.90;;;;;;5040384;28;20461;-53
2020/12/04 12:11:57;;;;;;;24.87;12.60;;;6.30;99.90;;;;;;5041333;28;20421;-53
2020/12/04 12:14:23;;;;;;;20.42;12.00;;;6.40;99.90;;;;;;5041183;28;20757;-53
2020/12/04 12:16:49;;;;;;;20.73;11.53;;;6.60;99.90;;;;;;5036234;28;20503;-53
2020/12/04 12:19:15;;;;;;;18.33;10.25;;;6.50;99.90;;;;;;5042254;28;20393;-57
2020/12/04 12:21:43;;;;;;;20.23;10.50;;;6.60;99.90;;;;;;5038897;28;20441;-54
2020/12/04 12:24:12;;;;;;;17.70;9.60;;;6.50;99.90;;;;;;5040987;28;20471;-54
2020/12/04 12:26:37;;;;;;;20.92;10.88;;;6.50;99.90;;;;;;5044090;28;20413;-52
2020/12/04 12:29:03;;;;;;;17.10;8.90;;;6.50;99.90;;;;;;5046546;28;20443;-51
2020/12/04 12:31:29;;;;;;;21.27;11.60;;;6.60;99.90;;;;;;5044090;28;20481;-52
2020/12/04 12:33:56;;;;;;;17.40;9.60;;;6.30;99.90;;;;;;5039554;28;20403;-52
2020/12/04 12:36:22;;;;;;;19.65;10.00;;;6.80;99.90;;;;;;5036800;28;20471;-54
2020/12/04 12:38:47;;;;;;;23.70;11.20;;;6.70;99.90;;;;;;5043132;28;20393;-52
2020/12/04 12:41:14;;;;;;;23.35;11.45;;;6.50;99.90;;;;;;5044119;28;20449;-58